sensor_id;sensor_type;location;lat;lon;timestamp;temperature;humidity
27270;DHT22;14769;56.934;24.176;2022-12-05T00:00:42;-0.40;99.90
27270;DHT22;14769;56.934;24.176;2022-12-05T00:01:44;-0.50;99.90
27270;DHT22;14769;56.934;24.176;2022-12-05T00:02:46;-0.40;99.90
27270;DHT22;14769;56.934;24.176;2022-12-05T00:03:48;-0.40;99.90
27270;DHT22;14769;56.934;24.176;2022-12-05T00:04:50;-0.40;99.90
27270;DHT22;14769;56.934;24.176;2022-12-05T00:05:52;-0.40;99.90
27270;DHT22;14769;56.934;24.176;2022-12-05T00:06:54;-0.40;99.90
27270;DHT22;14769;56.934;24.176;2022-12-05T00:07:56;-0.40;99.90
27270;DHT22;14769;56.934;24.176;2022-12-05T00:08:58;-0.40;99.90
27270;DHT22;14769;56.934;24.176;2022-12-05T00:09:59;-0.40;99.90
27270;DHT22;14769;56.934;24.176;2022-12-05T00:11:01;-0.40;99.90
27270;DHT22;14769;56.934;24.176;2022-12-05T00:12:03;-0.40;99.90
27270;DHT22;14769;56.934;24.176;2022-12-05T00:13:05;-0.40;99.90
27270;DHT22;14769;56.934;24.176;2022-12-05T00:14:07;-0.40;99.90
27270;DHT22;14769;56.934;24.176;2022-12-05T00:15:10;-0.40;99.90
27270;DHT22;14769;56.934;24.176;2022-12-05T00:16:15;-0.40;99.90
27270;DHT22;14769;56.934;24.176;2022-12-05T00:17:17;-0.50;99.90
27270;DHT22;14769;56.934;24.176;2022-12-05T00:18:19;-0.40;99.90
27270;DHT22;14769;56.934;24.176;2022-12-05T00:19:21;-0.50;99.90
27270;DHT22;14769;56.934;24.176;2022-12-05T00:20:23;-0.50;99.90
27270;DHT22;14769;56.934;24.176;2022-12-05T00:21:26;-0.50;99.90
27270;DHT22;14769;56.934;24.176;2022-12-05T00:22:28;-0.40;99.90
27270;DHT22;14769;56.934;24.176;2022-12-05T00:23:30;-0.50;99.90
27270;DHT22;14769;56.934;24.176;2022-12-05T00:24:31;-0.40;99.90
27270;DHT22;14769;56.934;24.176;2022-12-05T00:25:34;-0.40;99.90
27270;DHT22;14769;56.934;24.176;2022-12-05T00:26:36;-0.40;99.90
27270;DHT22;14769;56.934;24.176;2022-12-05T00:27:38;-0.40;99.90
27270;DHT22;14769;56.934;24.176;2022-12-05T00:28:39;-0.40;99.90
27270;DHT22;14769;56.934;24.176;2022-12-05T00:29:41;-0.50;99.90
27270;DHT22;14769;56.934;24.176;2022-12-05T00:30:43;-0.40;99.90
27270;DHT22;14769;56.934;24.176;2022-12-05T00:31:45;-0.40;99.90
27270;DHT22;14769;56.934;24.176;2022-12-05T00:32:47;-0.40;99.90
27270;DHT22;14769;56.934;24.176;2022-12-05T00:33:49;-0.40;99.90
27270;DHT22;14769;56.934;24.176;2022-12-05T00:34:51;-0.40;99.90
27270;DHT22;14769;56.934;24.176;2022-12-05T00:35:53;-0.40;99.90
27270;DHT22;14769;56.934;24.176;2022-12-05T00:36:55;-0.40;99.90
27270;DHT22;14769;56.934;24.176;2022-12-05T00:37:57;-0.40;99.90
27270;DHT22;14769;56.934;24.176;2022-12-05T00:38:59;-0.40;99.90
27270;DHT22;14769;56.934;24.176;2022-12-05T00:40:02;-0.40;99.90
27270;DHT22;14769;56.934;24.176;2022-12-05T00:41:04;-0.40;99.90
27270;DHT22;14769;56.934;24.176;2022-12-05T00:42:06;-0.40;99.90
27270;DHT22;14769;56.934;24.176;2022-12-05T00:43:08;-0.40;99.90
27270;DHT22;14769;56.934;24.176;2022-12-05T00:44:10;-0.40;99.90
27270;DHT22;14769;56.934;24.176;2022-12-05T00:45:12;-0.40;99.90
27270;DHT22;14769;56.934;24.176;2022-12-05T00:46:17;-0.40;99.90
27270;DHT22;14769;56.934;24.176;2022-12-05T00:47:19;-0.50;99.90
27270;DHT22;14769;56.934;24.176;2022-12-05T00:48:21;-0.40;99.90
27270;DHT22;14769;56.934;24.176;2022-12-05T00:49:22;-0.40;99.90
27270;DHT22;14769;56.934;24.176;2022-12-05T00:50:24;-0.40;99.90
27270;DHT22;14769;56.934;24.176;2022-12-05T00:51:30;-0.40;99.90
27270;DHT22;14769;56.934;24.176;2022-12-05T00:52:32;-0.40;99.90
27270;DHT22;14769;56.934;24.176;2022-12-05T00:53:34;-0.40;99.90
27270;DHT22;14769;56.934;24.176;2022-12-05T00:54:37;-0.40;99.90
27270;DHT22;14769;56.934;24.176;2022-12-05T00:55:39;-0.50;99.90
27270;DHT22;14769;56.934;24.176;2022-12-05T00:56:41;-0.50;99.90
27270;DHT22;14769;56.934;24.176;2022-12-05T00:57:48;-0.50;99.90
27270;DHT22;14769;56.934;24.176;2022-12-05T00:58:50;-0.50;99.90
27270;DHT22;14769;56.934;24.176;2022-12-05T00:59:52;-0.50;99.90
27270;DHT22;14769;56.934;24.176;2022-12-05T01:00:54;-0.50;99.90
27270;DHT22;14769;56.934;24.176;2022-12-05T01:01:56;-0.50;99.90
27270;DHT22;14769;56.934;24.176;2022-12-05T01:02:58;-0.50;99.90
27270;DHT22;14769;56.934;24.176;2022-12-05T01:04:02;-0.50;99.90
27270;DHT22;14769;56.934;24.176;2022-12-05T01:05:04;-0.50;99.90
27270;DHT22;14769;56.934;24.176;2022-12-05T01:06:07;-0.50;99.90
27270;DHT22;14769;56.934;24.176;2022-12-05T01:07:09;-0.50;99.90
27270;DHT22;14769;56.934;24.176;2022-12-05T01:08:11;-0.50;99.90
27270;DHT22;14769;56.934;24.176;2022-12-05T01:09:14;-0.50;99.90
27270;DHT22;14769;56.934;24.176;2022-12-05T01:10:16;-0.50;99.90
27270;DHT22;14769;56.934;24.176;2022-12-05T01:11:18;-0.50;99.90
27270;DHT22;14769;56.934;24.176;2022-12-05T01:12:20;-0.50;99.90
27270;DHT22;14769;56.934;24.176;2022-12-05T01:13:21;-0.50;99.90
27270;DHT22;14769;56.934;24.176;2022-12-05T01:14:24;-0.50;99.90
27270;DHT22;14769;56.934;24.176;2022-12-05T01:15:26;-0.50;99.90
27270;DHT22;14769;56.934;24.176;2022-12-05T01:16:29;-0.50;99.90
27270;DHT22;14769;56.934;24.176;2022-12-05T01:17:31;-0.50;99.90
27270;DHT22;14769;56.934;24.176;2022-12-05T01:18:35;-0.50;99.90
27270;DHT22;14769;56.934;24.176;2022-12-05T01:19:37;-0.50;99.90
27270;DHT22;14769;56.934;24.176;2022-12-05T01:20:39;-0.50;99.90
27270;DHT22;14769;56.934;24.176;2022-12-05T01:21:41;-0.50;99.90
27270;DHT22;14769;56.934;24.176;2022-12-05T01:22:43;-0.50;99.90
27270;DHT22;14769;56.934;24.176;2022-12-05T01:23:45;-0.50;99.90
27270;DHT22;14769;56.934;24.176;2022-12-05T01:24:47;-0.50;99.90
27270;DHT22;14769;56.934;24.176;2022-12-05T01:25:49;-0.50;99.90
27270;DHT22;14769;56.934;24.176;2022-12-05T01:26:52;-0.50;99.90
27270;DHT22;14769;56.934;24.176;2022-12-05T01:27:55;-0.50;99.90
27270;DHT22;14769;56.934;24.176;2022-12-05T01:28:57;-0.50;99.90
27270;DHT22;14769;56.934;24.176;2022-12-05T01:29:59;-0.40;99.90
27270;DHT22;14769;56.934;24.176;2022-12-05T01:31:04;-0.50;99.90
27270;DHT22;14769;56.934;24.176;2022-12-05T01:32:07;-0.50;99.90
27270;DHT22;14769;56.934;24.176;2022-12-05T01:33:09;-0.50;99.90
27270;DHT22;14769;56.934;24.176;2022-12-05T01:34:12;-0.50;99.90
27270;DHT22;14769;56.934;24.176;2022-12-05T01:35:14;-0.60;99.90
27270;DHT22;14769;56.934;24.176;2022-12-05T01:36:17;-0.60;99.90
27270;DHT22;14769;56.934;24.176;2022-12-05T01:37:18;-0.60;99.90
27270;DHT22;14769;56.934;24.176;2022-12-05T01:38:20;-0.60;99.90
27270;DHT22;14769;56.934;24.176;2022-12-05T01:39:22;-0.60;99.90
27270;DHT22;14769;56.934;24.176;2022-12-05T01:40:24;-0.60;99.90
27270;DHT22;14769;56.934;24.176;2022-12-05T01:41:29;-0.60;99.90
27270;DHT22;14769;56.934;24.176;2022-12-05T01:42:31;-0.60;99.90
27270;DHT22;14769;56.934;24.176;2022-12-05T01:43:51;-0.60;99.90
27270;DHT22;14769;56.934;24.176;2022-12-05T01:45:55;-0.60;99.90
27270;DHT22;14769;56.934;24.176;2022-12-05T01:46:56;-0.60;99.90
27270;DHT22;14769;56.934;24.176;2022-12-05T01:47:59;-0.60;99.90
27270;DHT22;14769;56.934;24.176;2022-12-05T01:49:14;-0.60;99.90
27270;DHT22;14769;56.934;24.176;2022-12-05T01:50:16;-0.60;99.90
27270;DHT22;14769;56.934;24.176;2022-12-05T01:51:19;-0.70;99.90
27270;DHT22;14769;56.934;24.176;2022-12-05T01:52:21;-0.70;99.90
27270;DHT22;14769;56.934;24.176;2022-12-05T01:53:24;-0.70;99.90
27270;DHT22;14769;56.934;24.176;2022-12-05T01:54:26;-0.70;99.90
27270;DHT22;14769;56.934;24.176;2022-12-05T01:55:29;-0.70;99.90
27270;DHT22;14769;56.934;24.176;2022-12-05T01:56:31;-0.70;99.90
27270;DHT22;14769;56.934;24.176;2022-12-05T01:57:34;-0.70;99.90
27270;DHT22;14769;56.934;24.176;2022-12-05T01:58:36;-0.70;99.90
27270;DHT22;14769;56.934;24.176;2022-12-05T01:59:39;-0.70;99.90
27270;DHT22;14769;56.934;24.176;2022-12-05T02:00:42;-0.70;99.90
27270;DHT22;14769;56.934;24.176;2022-12-05T02:01:44;-0.70;99.90
27270;DHT22;14769;56.934;24.176;2022-12-05T02:02:50;-0.80;99.90
27270;DHT22;14769;56.934;24.176;2022-12-05T02:03:53;-0.80;99.90
27270;DHT22;14769;56.934;24.176;2022-12-05T02:05:03;-0.70;99.90
27270;DHT22;14769;56.934;24.176;2022-12-05T02:06:06;-0.80;99.90
27270;DHT22;14769;56.934;24.176;2022-12-05T02:07:08;-0.80;99.90
27270;DHT22;14769;56.934;24.176;2022-12-05T02:08:10;-0.80;99.90
27270;DHT22;14769;56.934;24.176;2022-12-05T02:09:12;-0.80;99.90
27270;DHT22;14769;56.934;24.176;2022-12-05T02:10:14;-0.80;99.90
27270;DHT22;14769;56.934;24.176;2022-12-05T02:11:16;-0.80;99.90
27270;DHT22;14769;56.934;24.176;2022-12-05T02:12:18;-0.80;99.90
27270;DHT22;14769;56.934;24.176;2022-12-05T02:14:31;-0.80;99.90
27270;DHT22;14769;56.934;24.176;2022-12-05T02:16:17;-0.80;99.90
27270;DHT22;14769;56.934;24.176;2022-12-05T02:24:04;-0.80;99.90
27270;DHT22;14769;56.934;24.176;2022-12-05T02:29:55;-0.80;99.90
27270;DHT22;14769;56.934;24.176;2022-12-05T02:33:46;-0.70;99.90
27270;DHT22;14769;56.934;24.176;2022-12-05T02:40:32;-0.70;99.90
27270;DHT22;14769;56.934;24.176;2022-12-05T02:41:38;-0.70;99.90
27270;DHT22;14769;56.934;24.176;2022-12-05T02:42:44;-0.70;99.90
27270;DHT22;14769;56.934;24.176;2022-12-05T02:43:59;-0.70;99.90
27270;DHT22;14769;56.934;24.176;2022-12-05T02:45:03;-0.70;99.90
27270;DHT22;14769;56.934;24.176;2022-12-05T02:46:09;-0.70;99.90
27270;DHT22;14769;56.934;24.176;2022-12-05T02:47:12;-0.70;99.90
27270;DHT22;14769;56.934;24.176;2022-12-05T02:48:16;-0.70;99.90
27270;DHT22;14769;56.934;24.176;2022-12-05T02:49:22;-0.70;99.90
27270;DHT22;14769;56.934;24.176;2022-12-05T02:50:30;-0.70;99.90
27270;DHT22;14769;56.934;24.176;2022-12-05T02:51:34;-0.70;99.90
27270;DHT22;14769;56.934;24.176;2022-12-05T02:52:38;-0.70;99.90
27270;DHT22;14769;56.934;24.176;2022-12-05T02:53:42;-0.70;99.90
27270;DHT22;14769;56.934;24.176;2022-12-05T02:54:45;-0.80;99.90
27270;DHT22;14769;56.934;24.176;2022-12-05T02:55:48;-0.70;99.90
27270;DHT22;14769;56.934;24.176;2022-12-05T02:56:50;-0.70;99.90
27270;DHT22;14769;56.934;24.176;2022-12-05T02:57:53;-0.80;99.90
27270;DHT22;14769;56.934;24.176;2022-12-05T02:58:56;-0.80;99.90
27270;DHT22;14769;56.934;24.176;2022-12-05T02:59:58;-0.80;99.90
27270;DHT22;14769;56.934;24.176;2022-12-05T03:01:00;-0.80;99.90
27270;DHT22;14769;56.934;24.176;2022-12-05T03:02:03;-0.80;99.90
27270;DHT22;14769;56.934;24.176;2022-12-05T03:03:10;-0.80;99.90
27270;DHT22;14769;56.934;24.176;2022-12-05T03:04:13;-0.80;99.90
27270;DHT22;14769;56.934;24.176;2022-12-05T03:06:37;-0.80;99.90
27270;DHT22;14769;56.934;24.176;2022-12-05T03:07:42;-0.80;99.90
27270;DHT22;14769;56.934;24.176;2022-12-05T03:09:00;-0.80;99.90
27270;DHT22;14769;56.934;24.176;2022-12-05T03:10:03;-0.90;99.90
27270;DHT22;14769;56.934;24.176;2022-12-05T03:11:08;-0.80;99.90
27270;DHT22;14769;56.934;24.176;2022-12-05T03:12:21;-0.90;99.90
27270;DHT22;14769;56.934;24.176;2022-12-05T03:13:25;-0.90;99.90
27270;DHT22;14769;56.934;24.176;2022-12-05T03:14:28;-0.80;99.90
27270;DHT22;14769;56.934;24.176;2022-12-05T03:15:32;-0.80;99.90
27270;DHT22;14769;56.934;24.176;2022-12-05T03:16:36;-0.80;99.90
27270;DHT22;14769;56.934;24.176;2022-12-05T03:17:40;-0.80;99.90
27270;DHT22;14769;56.934;24.176;2022-12-05T03:18:47;-0.80;99.90
27270;DHT22;14769;56.934;24.176;2022-12-05T03:22:47;-0.80;99.90
27270;DHT22;14769;56.934;24.176;2022-12-05T03:23:53;-0.80;99.90
27270;DHT22;14769;56.934;24.176;2022-12-05T03:24:56;-0.80;99.90
27270;DHT22;14769;56.934;24.176;2022-12-05T03:26:02;-0.90;99.90
27270;DHT22;14769;56.934;24.176;2022-12-05T03:28:16;-0.90;99.90
27270;DHT22;14769;56.934;24.176;2022-12-05T03:29:35;-0.80;99.90
27270;DHT22;14769;56.934;24.176;2022-12-05T03:30:39;-0.90;99.90
27270;DHT22;14769;56.934;24.176;2022-12-05T03:33:49;-0.90;99.90
27270;DHT22;14769;56.934;24.176;2022-12-05T03:35:05;-0.90;99.90
27270;DHT22;14769;56.934;24.176;2022-12-05T03:36:18;-0.90;99.90
27270;DHT22;14769;56.934;24.176;2022-12-05T03:38:05;-0.80;99.90
27270;DHT22;14769;56.934;24.176;2022-12-05T03:38:52;-0.90;99.90
27270;DHT22;14769;56.934;24.176;2022-12-05T03:40:02;-0.90;99.90
27270;DHT22;14769;56.934;24.176;2022-12-05T03:41:16;-0.90;99.90
27270;DHT22;14769;56.934;24.176;2022-12-05T03:42:26;-0.90;99.90
27270;DHT22;14769;56.934;24.176;2022-12-05T03:43:38;-0.90;99.90
27270;DHT22;14769;56.934;24.176;2022-12-05T03:47:11;-0.90;99.90
27270;DHT22;14769;56.934;24.176;2022-12-05T03:48:20;-0.90;99.90
27270;DHT22;14769;56.934;24.176;2022-12-05T03:49:38;-0.90;99.90
27270;DHT22;14769;56.934;24.176;2022-12-05T03:50:40;-0.90;99.90
27270;DHT22;14769;56.934;24.176;2022-12-05T03:51:46;-0.80;99.90
27270;DHT22;14769;56.934;24.176;2022-12-05T03:52:51;-0.90;99.90
27270;DHT22;14769;56.934;24.176;2022-12-05T03:54:37;-0.90;99.90
27270;DHT22;14769;56.934;24.176;2022-12-05T03:55:37;-0.90;99.90
27270;DHT22;14769;56.934;24.176;2022-12-05T03:56:42;-0.90;99.90
27270;DHT22;14769;56.934;24.176;2022-12-05T03:57:48;-0.90;99.90
27270;DHT22;14769;56.934;24.176;2022-12-05T03:58:55;-0.90;99.90
27270;DHT22;14769;56.934;24.176;2022-12-05T04:00:08;-0.90;99.90
27270;DHT22;14769;56.934;24.176;2022-12-05T04:01:12;-0.90;99.90
27270;DHT22;14769;56.934;24.176;2022-12-05T04:02:23;-0.90;99.90
27270;DHT22;14769;56.934;24.176;2022-12-05T04:03:29;-0.90;99.90
27270;DHT22;14769;56.934;24.176;2022-12-05T04:04:44;-0.90;99.90
27270;DHT22;14769;56.934;24.176;2022-12-05T04:05:48;-1.00;99.90
27270;DHT22;14769;56.934;24.176;2022-12-05T04:06:52;-1.00;99.90
27270;DHT22;14769;56.934;24.176;2022-12-05T04:07:59;-1.00;99.90
27270;DHT22;14769;56.934;24.176;2022-12-05T04:09:03;-0.90;99.90
27270;DHT22;14769;56.934;24.176;2022-12-05T04:10:07;-1.00;99.90
27270;DHT22;14769;56.934;24.176;2022-12-05T04:11:13;-1.00;99.90
27270;DHT22;14769;56.934;24.176;2022-12-05T04:12:18;-1.00;99.90
27270;DHT22;14769;56.934;24.176;2022-12-05T04:14:29;-1.00;99.90
27270;DHT22;14769;56.934;24.176;2022-12-05T04:15:31;-0.90;99.90
27270;DHT22;14769;56.934;24.176;2022-12-05T04:17:16;-0.90;99.90
27270;DHT22;14769;56.934;24.176;2022-12-05T04:18:16;-0.90;99.90
27270;DHT22;14769;56.934;24.176;2022-12-05T04:21:49;-0.90;99.90
27270;DHT22;14769;56.934;24.176;2022-12-05T04:22:52;-0.90;99.90
27270;DHT22;14769;56.934;24.176;2022-12-05T04:23:54;-0.90;99.90
27270;DHT22;14769;56.934;24.176;2022-12-05T04:25:15;-0.90;99.90
27270;DHT22;14769;56.934;24.176;2022-12-05T04:26:36;-0.90;99.90
27270;DHT22;14769;56.934;24.176;2022-12-05T04:28:55;-0.90;99.90
27270;DHT22;14769;56.934;24.176;2022-12-05T04:30:07;-0.90;99.90
27270;DHT22;14769;56.934;24.176;2022-12-05T04:31:19;-0.90;99.90
27270;DHT22;14769;56.934;24.176;2022-12-05T04:32:25;-0.90;99.90
27270;DHT22;14769;56.934;24.176;2022-12-05T04:33:43;-0.90;99.90
27270;DHT22;14769;56.934;24.176;2022-12-05T04:34:48;-0.90;99.90
27270;DHT22;14769;56.934;24.176;2022-12-05T04:35:52;-0.90;99.90
27270;DHT22;14769;56.934;24.176;2022-12-05T04:36:55;-0.90;99.90
27270;DHT22;14769;56.934;24.176;2022-12-05T04:38:09;-0.90;99.90
27270;DHT22;14769;56.934;24.176;2022-12-05T04:39:15;-0.90;99.90
27270;DHT22;14769;56.934;24.176;2022-12-05T04:40:43;-0.90;99.90
27270;DHT22;14769;56.934;24.176;2022-12-05T04:41:43;-0.90;99.90
27270;DHT22;14769;56.934;24.176;2022-12-05T04:42:47;-0.90;99.90
27270;DHT22;14769;56.934;24.176;2022-12-05T04:43:51;-0.90;99.90
27270;DHT22;14769;56.934;24.176;2022-12-05T04:45:01;-0.90;99.90
27270;DHT22;14769;56.934;24.176;2022-12-05T04:46:04;-0.90;99.90
27270;DHT22;14769;56.934;24.176;2022-12-05T04:47:07;-0.90;99.90
27270;DHT22;14769;56.934;24.176;2022-12-05T04:48:11;-0.90;99.90
27270;DHT22;14769;56.934;24.176;2022-12-05T04:49:16;-0.80;99.90
27270;DHT22;14769;56.934;24.176;2022-12-05T04:50:19;-0.90;99.90
27270;DHT22;14769;56.934;24.176;2022-12-05T04:51:25;-0.80;99.90
27270;DHT22;14769;56.934;24.176;2022-12-05T04:52:29;-0.90;99.90
27270;DHT22;14769;56.934;24.176;2022-12-05T04:53:31;-0.90;99.90
27270;DHT22;14769;56.934;24.176;2022-12-05T04:54:35;-0.90;99.90
27270;DHT22;14769;56.934;24.176;2022-12-05T04:55:39;-0.90;99.90
27270;DHT22;14769;56.934;24.176;2022-12-05T04:56:43;-0.90;99.90
27270;DHT22;14769;56.934;24.176;2022-12-05T04:58:03;-0.90;99.90
27270;DHT22;14769;56.934;24.176;2022-12-05T04:59:06;-0.80;99.90
27270;DHT22;14769;56.934;24.176;2022-12-05T05:00:08;-0.80;99.90
27270;DHT22;14769;56.934;24.176;2022-12-05T05:01:13;-0.90;99.90
27270;DHT22;14769;56.934;24.176;2022-12-05T05:02:17;-0.80;99.90
27270;DHT22;14769;56.934;24.176;2022-12-05T05:03:22;-0.90;99.90
27270;DHT22;14769;56.934;24.176;2022-12-05T05:04:41;-0.90;99.90
27270;DHT22;14769;56.934;24.176;2022-12-05T05:05:46;-0.90;99.90
27270;DHT22;14769;56.934;24.176;2022-12-05T05:06:49;-0.90;99.90
27270;DHT22;14769;56.934;24.176;2022-12-05T05:07:51;-0.90;99.90
27270;DHT22;14769;56.934;24.176;2022-12-05T05:08:55;-0.90;99.90
27270;DHT22;14769;56.934;24.176;2022-12-05T05:09:57;-0.90;99.90
27270;DHT22;14769;56.934;24.176;2022-12-05T05:11:05;-0.90;99.90
27270;DHT22;14769;56.934;24.176;2022-12-05T05:12:07;-0.90;99.90
27270;DHT22;14769;56.934;24.176;2022-12-05T05:13:09;-0.90;99.90
27270;DHT22;14769;56.934;24.176;2022-12-05T05:14:10;-0.90;99.90
27270;DHT22;14769;56.934;24.176;2022-12-05T05:15:12;-0.80;99.90
27270;DHT22;14769;56.934;24.176;2022-12-05T05:16:15;-0.90;99.90
27270;DHT22;14769;56.934;24.176;2022-12-05T05:17:18;-0.90;99.90
27270;DHT22;14769;56.934;24.176;2022-12-05T05:18:20;-0.90;99.90
27270;DHT22;14769;56.934;24.176;2022-12-05T05:19:22;-0.90;99.90
27270;DHT22;14769;56.934;24.176;2022-12-05T05:20:23;-0.90;99.90
27270;DHT22;14769;56.934;24.176;2022-12-05T05:21:27;-0.90;99.90
27270;DHT22;14769;56.934;24.176;2022-12-05T05:22:29;-0.90;99.90
27270;DHT22;14769;56.934;24.176;2022-12-05T05:23:31;-0.90;99.90
27270;DHT22;14769;56.934;24.176;2022-12-05T05:24:32;-0.90;99.90
27270;DHT22;14769;56.934;24.176;2022-12-05T05:25:34;-0.90;99.90
27270;DHT22;14769;56.934;24.176;2022-12-05T05:26:40;-0.90;99.90
27270;DHT22;14769;56.934;24.176;2022-12-05T05:27:42;-0.90;99.90
27270;DHT22;14769;56.934;24.176;2022-12-05T05:28:44;-0.90;99.90
27270;DHT22;14769;56.934;24.176;2022-12-05T05:29:46;-0.90;99.90
27270;DHT22;14769;56.934;24.176;2022-12-05T05:30:48;-0.90;99.90
27270;DHT22;14769;56.934;24.176;2022-12-05T05:31:50;-0.90;99.90
27270;DHT22;14769;56.934;24.176;2022-12-05T05:32:52;-0.90;99.90
27270;DHT22;14769;56.934;24.176;2022-12-05T05:33:54;-0.90;99.90
27270;DHT22;14769;56.934;24.176;2022-12-05T05:34:57;-0.90;99.90
27270;DHT22;14769;56.934;24.176;2022-12-05T05:36:05;-0.90;99.90
27270;DHT22;14769;56.934;24.176;2022-12-05T05:37:07;-0.90;99.90
27270;DHT22;14769;56.934;24.176;2022-12-05T05:38:09;-0.90;99.90
27270;DHT22;14769;56.934;24.176;2022-12-05T05:39:12;-0.90;99.90
27270;DHT22;14769;56.934;24.176;2022-12-05T05:40:15;-0.90;99.90
27270;DHT22;14769;56.934;24.176;2022-12-05T05:41:21;-1.00;99.90
27270;DHT22;14769;56.934;24.176;2022-12-05T05:42:23;-0.90;99.90
27270;DHT22;14769;56.934;24.176;2022-12-05T05:43:26;-0.90;99.90
27270;DHT22;14769;56.934;24.176;2022-12-05T05:44:28;-1.00;99.90
27270;DHT22;14769;56.934;24.176;2022-12-05T05:45:29;-1.00;99.90
27270;DHT22;14769;56.934;24.176;2022-12-05T05:46:32;-1.00;99.90
27270;DHT22;14769;56.934;24.176;2022-12-05T05:47:34;-1.00;99.90
27270;DHT22;14769;56.934;24.176;2022-12-05T05:48:36;-1.00;99.90
27270;DHT22;14769;56.934;24.176;2022-12-05T05:49:38;-1.00;99.90
27270;DHT22;14769;56.934;24.176;2022-12-05T05:50:40;-1.00;99.90
27270;DHT22;14769;56.934;24.176;2022-12-05T05:51:42;-1.00;99.90
27270;DHT22;14769;56.934;24.176;2022-12-05T05:52:43;-1.00;99.90
27270;DHT22;14769;56.934;24.176;2022-12-05T05:53:45;-1.00;99.90
27270;DHT22;14769;56.934;24.176;2022-12-05T05:54:47;-1.00;99.90
27270;DHT22;14769;56.934;24.176;2022-12-05T05:55:49;-1.00;99.90
27270;DHT22;14769;56.934;24.176;2022-12-05T05:56:51;-1.00;99.90
27270;DHT22;14769;56.934;24.176;2022-12-05T05:57:53;-1.00;99.90
27270;DHT22;14769;56.934;24.176;2022-12-05T05:58:59;-1.00;99.90
27270;DHT22;14769;56.934;24.176;2022-12-05T06:00:03;-1.00;99.90
27270;DHT22;14769;56.934;24.176;2022-12-05T06:01:06;-1.00;99.90
27270;DHT22;14769;56.934;24.176;2022-12-05T06:02:08;-1.00;99.90
27270;DHT22;14769;56.934;24.176;2022-12-05T06:03:10;-1.10;99.90
27270;DHT22;14769;56.934;24.176;2022-12-05T06:04:12;-1.00;99.90
27270;DHT22;14769;56.934;24.176;2022-12-05T06:05:14;-1.00;99.90
27270;DHT22;14769;56.934;24.176;2022-12-05T06:06:16;-1.00;99.90
27270;DHT22;14769;56.934;24.176;2022-12-05T06:07:17;-1.00;99.90
27270;DHT22;14769;56.934;24.176;2022-12-05T06:08:19;-1.00;99.90
27270;DHT22;14769;56.934;24.176;2022-12-05T06:09:21;-1.00;99.90
27270;DHT22;14769;56.934;24.176;2022-12-05T06:10:23;-1.10;99.90
27270;DHT22;14769;56.934;24.176;2022-12-05T06:11:25;-1.00;99.90
27270;DHT22;14769;56.934;24.176;2022-12-05T06:12:27;-1.00;99.90
27270;DHT22;14769;56.934;24.176;2022-12-05T06:13:29;-1.00;99.90
27270;DHT22;14769;56.934;24.176;2022-12-05T06:14:31;-1.10;99.90
27270;DHT22;14769;56.934;24.176;2022-12-05T06:15:32;-1.00;99.90
27270;DHT22;14769;56.934;24.176;2022-12-05T06:16:34;-1.10;99.90
27270;DHT22;14769;56.934;24.176;2022-12-05T06:17:36;-1.10;99.90
27270;DHT22;14769;56.934;24.176;2022-12-05T06:18:38;-1.10;99.90
27270;DHT22;14769;56.934;24.176;2022-12-05T06:19:40;-1.10;99.90
27270;DHT22;14769;56.934;24.176;2022-12-05T06:20:49;-1.10;99.90
27270;DHT22;14769;56.934;24.176;2022-12-05T06:21:51;-1.10;99.90
27270;DHT22;14769;56.934;24.176;2022-12-05T06:22:53;-1.10;99.90
27270;DHT22;14769;56.934;24.176;2022-12-05T06:23:55;-1.10;99.90
27270;DHT22;14769;56.934;24.176;2022-12-05T06:24:57;-1.10;99.90
27270;DHT22;14769;56.934;24.176;2022-12-05T06:25:59;-1.10;99.90
27270;DHT22;14769;56.934;24.176;2022-12-05T06:27:01;-1.10;99.90
27270;DHT22;14769;56.934;24.176;2022-12-05T06:28:03;-1.00;99.90
27270;DHT22;14769;56.934;24.176;2022-12-05T06:29:05;-1.00;99.90
27270;DHT22;14769;56.934;24.176;2022-12-05T06:30:07;-1.00;99.90
27270;DHT22;14769;56.934;24.176;2022-12-05T06:31:09;-1.00;99.90
27270;DHT22;14769;56.934;24.176;2022-12-05T06:32:11;-1.00;99.90
27270;DHT22;14769;56.934;24.176;2022-12-05T06:33:13;-1.00;99.90
27270;DHT22;14769;56.934;24.176;2022-12-05T06:34:15;-1.00;99.90
27270;DHT22;14769;56.934;24.176;2022-12-05T06:35:17;-1.00;99.90
27270;DHT22;14769;56.934;24.176;2022-12-05T06:36:20;-1.00;99.90
27270;DHT22;14769;56.934;24.176;2022-12-05T06:37:22;-1.00;99.90
27270;DHT22;14769;56.934;24.176;2022-12-05T06:38:23;-1.00;99.90
27270;DHT22;14769;56.934;24.176;2022-12-05T06:39:25;-1.00;99.90
27270;DHT22;14769;56.934;24.176;2022-12-05T06:40:27;-1.00;99.90
27270;DHT22;14769;56.934;24.176;2022-12-05T06:41:28;-1.10;99.90
27270;DHT22;14769;56.934;24.176;2022-12-05T06:42:30;-1.00;99.90
27270;DHT22;14769;56.934;24.176;2022-12-05T06:43:32;-1.10;99.90
27270;DHT22;14769;56.934;24.176;2022-12-05T06:44:34;-1.00;99.90
27270;DHT22;14769;56.934;24.176;2022-12-05T06:45:38;-1.00;99.90
27270;DHT22;14769;56.934;24.176;2022-12-05T06:46:40;-1.00;99.90
27270;DHT22;14769;56.934;24.176;2022-12-05T06:47:42;-1.00;99.90
27270;DHT22;14769;56.934;24.176;2022-12-05T06:48:44;-1.00;99.90
27270;DHT22;14769;56.934;24.176;2022-12-05T06:49:46;-1.00;99.90
27270;DHT22;14769;56.934;24.176;2022-12-05T06:50:51;-1.00;99.90
27270;DHT22;14769;56.934;24.176;2022-12-05T06:51:53;-1.00;99.90
27270;DHT22;14769;56.934;24.176;2022-12-05T06:52:55;-1.00;99.90
27270;DHT22;14769;56.934;24.176;2022-12-05T06:54:01;-1.10;99.90
27270;DHT22;14769;56.934;24.176;2022-12-05T06:55:03;-1.00;99.90
27270;DHT22;14769;56.934;24.176;2022-12-05T06:56:06;-1.00;99.90
27270;DHT22;14769;56.934;24.176;2022-12-05T06:57:12;-1.00;99.90
27270;DHT22;14769;56.934;24.176;2022-12-05T06:58:14;-0.90;99.90
27270;DHT22;14769;56.934;24.176;2022-12-05T06:59:16;-1.00;99.90
27270;DHT22;14769;56.934;24.176;2022-12-05T07:00:19;-1.00;99.90
27270;DHT22;14769;56.934;24.176;2022-12-05T07:01:39;-1.00;99.90
27270;DHT22;14769;56.934;24.176;2022-12-05T07:02:45;-1.00;99.90
27270;DHT22;14769;56.934;24.176;2022-12-05T07:03:47;-1.00;99.90
27270;DHT22;14769;56.934;24.176;2022-12-05T07:04:50;-1.00;99.90
27270;DHT22;14769;56.934;24.176;2022-12-05T07:05:52;-1.10;99.90
27270;DHT22;14769;56.934;24.176;2022-12-05T07:06:54;-1.00;99.90
27270;DHT22;14769;56.934;24.176;2022-12-05T07:07:56;-0.90;99.90
27270;DHT22;14769;56.934;24.176;2022-12-05T07:08:59;-1.00;99.90
27270;DHT22;14769;56.934;24.176;2022-12-05T07:10:02;-1.00;99.90
27270;DHT22;14769;56.934;24.176;2022-12-05T07:11:05;-1.00;99.90
27270;DHT22;14769;56.934;24.176;2022-12-05T07:12:06;-1.00;99.90
27270;DHT22;14769;56.934;24.176;2022-12-05T07:13:08;-1.00;99.90
27270;DHT22;14769;56.934;24.176;2022-12-05T07:14:16;-1.10;99.90
27270;DHT22;14769;56.934;24.176;2022-12-05T07:15:38;-1.00;99.90
27270;DHT22;14769;56.934;24.176;2022-12-05T07:16:40;-1.10;99.90